createdAt,value
2017-08-15T00:00:23.807Z,57.00
2017-08-15T00:02:52.105Z,56.90
2017-08-15T00:05:21.164Z,56.90
2017-08-15T00:07:49.462Z,56.90
2017-08-15T00:10:18.492Z,56.80
2017-08-15T00:12:46.763Z,56.80
2017-08-15T00:15:15.055Z,56.80
2017-08-15T00:17:44.089Z,57.40
2017-08-15T00:20:12.391Z,57.40
2017-08-15T00:22:40.664Z,57.30
2017-08-15T00:25:08.995Z,54.30
2017-08-15T00:27:37.294Z,52.60
2017-08-15T00:30:05.553Z,53.20
2017-08-15T00:32:33.816Z,54.00
2017-08-15T00:35:02.099Z,54.60
2017-08-15T00:37:30.344Z,55.40
2017-08-15T00:39:58.639Z,56.30
2017-08-15T00:42:26.880Z,56.30
2017-08-15T00:44:55.194Z,56.00
2017-08-15T00:47:24.234Z,55.40
2017-08-15T00:49:52.488Z,55.30
2017-08-15T00:52:20.764Z,55.10
2017-08-15T00:54:49.037Z,55.10
2017-08-15T00:57:17.314Z,55.10
2017-08-15T00:59:45.610Z,55.10
2017-08-15T01:02:13.908Z,55.10
2017-08-15T01:04:42.185Z,55.20
2017-08-15T01:07:11.225Z,55.30
2017-08-15T01:09:39.527Z,55.30
2017-08-15T01:12:08.583Z,55.50
2017-08-15T01:14:36.861Z,55.40
2017-08-15T01:17:05.930Z,55.60
2017-08-15T01:19:34.986Z,55.80
2017-08-15T01:22:03.236Z,55.70
2017-08-15T01:24:31.535Z,55.80
2017-08-15T01:27:00.544Z,55.80
2017-08-15T01:29:28.822Z,55.80
2017-08-15T01:31:57.130Z,55.80
2017-08-15T01:34:26.144Z,56.10
2017-08-15T01:36:54.393Z,56.00
2017-08-15T01:39:22.690Z,56.00
2017-08-15T01:41:50.938Z,56.10
2017-08-15T01:44:19.176Z,56.20
2017-08-15T01:46:47.441Z,56.20
2017-08-15T01:49:15.689Z,56.20
2017-08-15T01:51:43.937Z,56.20
2017-08-15T01:54:12.984Z,56.50
2017-08-15T01:56:41.258Z,56.40
2017-08-15T01:59:09.513Z,56.30
2017-08-15T02:01:37.810Z,56.40
2017-08-15T02:04:06.061Z,56.50
2017-08-15T02:06:34.309Z,56.60
2017-08-15T02:09:02.818Z,57.20
2017-08-15T02:11:31.073Z,56.60
2017-08-15T02:13:59.996Z,56.90
2017-08-15T02:16:29.092Z,56.70
2017-08-15T02:18:58.105Z,56.60
2017-08-15T02:21:26.357Z,56.60
2017-08-15T02:23:54.646Z,56.50
2017-08-15T02:26:22.927Z,56.50
2017-08-15T02:28:51.949Z,56.60
2017-08-15T02:31:20.216Z,56.70
2017-08-15T02:33:48.465Z,56.60
2017-08-15T02:36:16.756Z,56.70
2017-08-15T02:38:45.025Z,56.70
2017-08-15T02:41:13.311Z,56.90
2017-08-15T02:43:42.369Z,56.90
2017-08-15T02:46:10.628Z,57.00
2017-08-15T02:48:38.884Z,56.80
2017-08-15T02:51:07.138Z,56.90
2017-08-15T02:53:35.401Z,56.90
2017-08-15T02:56:03.691Z,56.90
2017-08-15T02:58:32.715Z,57.50
2017-08-15T03:01:00.984Z,57.50
2017-08-15T03:03:29.228Z,57.30
2017-08-15T03:05:57.511Z,57.20
2017-08-15T03:08:25.787Z,57.30
2017-08-15T03:10:53.768Z,57.30
2017-08-15T03:13:23.969Z,57.30
2017-08-15T03:15:53.037Z,57.30
2017-08-15T03:18:22.082Z,57.30
2017-08-15T03:20:50.329Z,57.30
2017-08-15T03:23:18.640Z,57.30
2017-08-15T03:25:47.463Z,57.30
2017-08-15T03:28:15.713Z,57.30
2017-08-15T03:30:43.990Z,57.30
2017-08-15T03:33:12.261Z,57.30
2017-08-15T03:35:40.548Z,57.80
2017-08-15T03:38:08.813Z,58.30
2017-08-15T03:40:37.090Z,58.20
2017-08-15T03:43:05.390Z,58.20
2017-08-15T03:45:33.673Z,58.10
2017-08-15T03:48:01.933Z,58.10
2017-08-15T03:50:30.180Z,58.10
2017-08-15T03:52:58.474Z,58.00
2017-08-15T03:55:27.518Z,58.40
2017-08-15T03:57:55.814Z,58.40
2017-08-15T04:00:24.845Z,58.40
2017-08-15T04:02:53.084Z,58.40
2017-08-15T04:05:21.378Z,58.30
2017-08-15T04:07:49.677Z,58.20
2017-08-15T04:10:18.731Z,58.10
2017-08-15T04:12:47.010Z,58.10
2017-08-15T04:15:16.083Z,58.30
2017-08-15T04:17:45.132Z,59.50
2017-08-15T04:20:13.378Z,58.80
2017-08-15T04:22:41.640Z,58.50
2017-08-15T04:25:09.893Z,58.20
2017-08-15T04:27:38.143Z,58.20
2017-08-15T04:30:06.459Z,58.20
2017-08-15T04:32:35.511Z,58.30
2017-08-15T04:35:03.759Z,58.30
2017-08-15T04:37:32.063Z,58.40
2017-08-15T04:40:01.109Z,58.50
2017-08-15T04:42:29.398Z,58.40
2017-08-15T04:44:58.437Z,58.70
2017-08-15T04:47:26.723Z,58.70
2017-08-15T04:49:55.006Z,58.60
2017-08-15T04:52:24.134Z,58.70
2017-08-15T04:54:52.383Z,58.70
2017-08-15T04:57:20.662Z,58.80
2017-08-15T04:59:48.971Z,58.80
2017-08-15T05:02:17.258Z,58.90
2017-08-15T05:04:45.504Z,58.90
2017-08-15T05:07:13.803Z,58.90
2017-08-15T05:09:42.090Z,59.00
2017-08-15T05:12:11.142Z,59.00
2017-08-15T05:14:39.444Z,58.90
2017-08-15T05:17:08.467Z,59.00
2017-08-15T05:19:36.712Z,59.00
2017-08-15T05:22:04.975Z,59.00
2017-08-15T05:24:33.255Z,59.00
2017-08-15T05:27:01.549Z,59.00
2017-08-15T05:29:30.584Z,59.10
2017-08-15T05:31:58.873Z,59.10
2017-08-15T05:34:27.156Z,59.00
2017-08-15T05:36:56.222Z,59.10
2017-08-15T05:39:25.228Z,59.10
2017-08-15T05:41:53.510Z,59.70
2017-08-15T05:44:21.778Z,59.00
2017-08-15T05:46:50.090Z,59.00
2017-08-15T05:49:19.143Z,59.00
2017-08-15T05:51:47.412Z,59.00
2017-08-15T05:54:15.710Z,59.00
2017-08-15T05:56:43.996Z,59.00
2017-08-15T05:59:12.298Z,59.00
2017-08-15T06:01:41.350Z,59.10
2017-08-15T06:04:09.601Z,58.90
2017-08-15T06:06:37.864Z,59.00
2017-08-15T06:09:06.122Z,59.00
2017-08-15T06:11:34.399Z,58.90
2017-08-15T06:14:02.677Z,59.00
2017-08-15T06:16:31.698Z,59.00
2017-08-15T06:18:59.983Z,58.90
2017-08-15T06:21:28.275Z,58.90
2017-08-15T06:23:57.235Z,59.00
2017-08-15T06:26:25.498Z,59.10
2017-08-15T06:28:53.785Z,59.00
2017-08-15T06:31:22.804Z,59.10
2017-08-15T06:33:51.050Z,59.10
2017-08-15T06:36:19.309Z,59.10
2017-08-15T06:38:47.594Z,59.10
2017-08-15T06:41:15.837Z,59.20
2017-08-15T06:43:44.105Z,59.20
2017-08-15T06:46:12.344Z,59.20
2017-08-15T06:48:40.597Z,59.20
2017-08-15T06:51:08.863Z,59.20
2017-08-15T06:53:37.152Z,59.30
2017-08-15T06:56:05.447Z,59.40
2017-08-15T06:58:34.510Z,59.30
2017-08-15T07:01:02.992Z,59.30
2017-08-15T07:03:32.041Z,59.10
2017-08-15T07:06:00.317Z,59.60
2017-08-15T07:08:28.602Z,60.00
2017-08-15T07:10:57.432Z,60.20
2017-08-15T07:13:25.746Z,60.20
2017-08-15T07:15:54.041Z,60.40
2017-08-15T07:18:22.326Z,60.30
2017-08-15T07:20:50.597Z,60.10
2017-08-15T07:23:18.845Z,60.40
2017-08-15T07:25:47.126Z,60.50
2017-08-15T07:28:15.982Z,60.90
2017-08-15T07:30:44.262Z,60.30
2017-08-15T07:33:13.306Z,60.40
2017-08-15T07:35:41.585Z,60.30
2017-08-15T07:38:09.911Z,60.50
2017-08-15T07:40:38.157Z,60.50
2017-08-15T07:43:06.462Z,60.60
2017-08-15T07:45:34.717Z,60.50
2017-08-15T07:48:03.685Z,60.60
2017-08-15T07:50:31.962Z,60.70
2017-08-15T07:53:00.250Z,60.40
2017-08-15T07:55:28.534Z,60.50
2017-08-15T07:57:56.838Z,60.50
2017-08-15T08:00:25.115Z,60.40
2017-08-15T08:02:54.264Z,61.00
2017-08-15T08:05:22.520Z,60.30
2017-08-15T08:07:50.805Z,60.20
2017-08-15T08:10:19.854Z,60.10
2017-08-15T08:12:48.128Z,60.10
2017-08-15T08:15:16.380Z,60.10
2017-08-15T08:17:44.633Z,59.90
2017-08-15T08:20:12.716Z,59.90
2017-08-15T08:22:40.976Z,59.80
2017-08-15T08:25:10.030Z,60.10
2017-08-15T08:27:38.334Z,59.80
2017-08-15T08:30:07.378Z,59.70
2017-08-15T08:32:35.629Z,59.60
2017-08-15T08:35:04.669Z,59.60
2017-08-15T08:37:33.596Z,59.60
2017-08-15T08:40:01.891Z,59.60
2017-08-15T08:42:30.190Z,59.50
2017-08-15T08:44:59.251Z,59.50
2017-08-15T08:47:27.539Z,59.50
2017-08-15T08:49:56.612Z,59.40
2017-08-15T08:52:25.675Z,59.30
2017-08-15T08:54:53.977Z,59.30
2017-08-15T08:57:22.295Z,59.30
2017-08-15T08:59:50.463Z,59.30
2017-08-15T09:02:18.566Z,59.30
2017-08-15T09:04:46.648Z,59.20
2017-08-15T09:07:14.708Z,59.20
2017-08-15T09:09:42.777Z,59.20
2017-08-15T09:12:11.762Z,59.20
2017-08-15T09:14:40.776Z,59.10
2017-08-15T09:17:08.882Z,59.10
2017-08-15T09:19:37.962Z,59.10
2017-08-15T09:22:06.831Z,59.00
2017-08-15T09:24:35.882Z,59.20
2017-08-15T09:27:04.006Z,59.00
2017-08-15T09:29:37.713Z,58.90
2017-08-15T09:32:05.826Z,58.90
2017-08-15T09:34:34.668Z,58.90
2017-08-15T09:37:02.920Z,58.90
2017-08-15T09:39:31.230Z,58.80
2017-08-15T09:41:59.306Z,58.80
2017-08-15T09:44:27.547Z,58.80
2017-08-15T09:46:55.664Z,58.80
2017-08-15T09:49:23.912Z,58.80
2017-08-15T09:51:52.214Z,58.80
2017-08-15T09:54:21.259Z,58.70
2017-08-15T09:56:49.509Z,58.70
2017-08-15T09:59:17.785Z,58.70
2017-08-15T10:01:46.058Z,58.70
2017-08-15T10:04:14.931Z,58.60
2017-08-15T10:06:44.007Z,59.20
2017-08-15T10:09:12.853Z,58.60
2017-08-15T10:11:40.950Z,58.60
2017-08-15T10:14:09.801Z,58.60
2017-08-15T10:16:37.914Z,58.50
2017-08-15T10:19:05.979Z,58.50
2017-08-15T10:21:34.070Z,58.50
2017-08-15T10:24:02.336Z,58.50
2017-08-15T10:26:30.622Z,58.50
2017-08-15T10:28:58.865Z,58.50
2017-08-15T10:31:27.174Z,58.50
2017-08-15T10:33:56.014Z,58.50
2017-08-15T10:36:24.287Z,58.40
2017-08-15T10:38:52.553Z,58.40
2017-08-15T10:41:20.849Z,58.40
2017-08-15T10:43:49.125Z,58.40
2017-08-15T10:46:17.401Z,58.40
2017-08-15T10:48:45.694Z,58.40
2017-08-15T10:51:14.750Z,58.40
2017-08-15T10:53:43.016Z,58.30
2017-08-15T10:56:11.267Z,58.30
2017-08-15T10:58:39.374Z,58.30
2017-08-15T11:01:07.513Z,58.30
2017-08-15T11:03:35.762Z,58.20
2017-08-15T11:06:04.820Z,58.20
2017-08-15T11:08:33.107Z,58.20
2017-08-15T11:11:02.124Z,58.20
2017-08-15T11:13:31.195Z,58.20
2017-08-15T11:15:59.497Z,58.20
2017-08-15T11:18:27.788Z,58.20
2017-08-15T11:20:56.091Z,58.20
2017-08-15T11:23:25.135Z,58.20
2017-08-15T11:25:53.376Z,58.80
2017-08-15T11:28:21.668Z,58.20
2017-08-15T11:30:49.990Z,58.20
2017-08-15T11:33:18.249Z,58.20
2017-08-15T11:35:46.574Z,58.10
2017-08-15T11:38:15.616Z,58.10
2017-08-15T11:40:43.868Z,58.10
2017-08-15T11:43:12.217Z,58.10
2017-08-15T11:45:40.330Z,58.10
2017-08-15T11:48:09.358Z,58.10
2017-08-15T11:50:37.652Z,58.00
2017-08-15T11:53:06.735Z,59.00
2017-08-15T11:55:35.744Z,59.00
2017-08-15T11:58:04.055Z,59.00
2017-08-15T12:00:32.359Z,58.80
2017-08-15T12:03:00.610Z,58.80
2017-08-15T12:05:28.899Z,58.90
2017-08-15T12:07:56.982Z,58.90
2017-08-15T12:10:25.233Z,58.90
2017-08-15T12:12:53.584Z,58.90
2017-08-15T12:15:21.866Z,59.10
2017-08-15T12:17:50.155Z,58.90
2017-08-15T12:20:19.188Z,59.00
2017-08-15T12:22:47.493Z,59.00
2017-08-15T12:25:16.520Z,60.40
2017-08-15T12:27:44.806Z,60.30
2017-08-15T12:30:13.120Z,61.90
2017-08-15T12:32:41.377Z,62.70
2017-08-15T12:35:09.617Z,64.30
2017-08-15T12:37:38.652Z,65.70
2017-08-15T12:40:06.900Z,65.70
2017-08-15T12:42:35.147Z,68.50
2017-08-15T12:45:03.443Z,68.90
2017-08-15T12:47:31.752Z,69.90
2017-08-15T12:50:00.675Z,71.70
2017-08-15T12:52:28.963Z,70.70
2017-08-15T12:54:58.018Z,70.60
2017-08-15T12:57:26.273Z,70.60
2017-08-15T12:59:54.583Z,71.10
2017-08-15T13:02:22.828Z,71.40
2017-08-15T13:04:50.892Z,71.50
2017-08-15T13:07:19.188Z,71.80
2017-08-15T13:09:47.483Z,71.80
2017-08-15T13:12:16.509Z,71.90
2017-08-15T13:14:44.798Z,72.20
2017-08-15T13:17:13.045Z,72.30
2017-08-15T13:19:41.288Z,73.00
2017-08-15T13:22:09.562Z,73.00
2017-08-15T13:24:37.620Z,73.00
2017-08-15T13:27:05.705Z,74.00
2017-08-15T13:29:33.977Z,73.60
2017-08-15T13:32:02.839Z,74.10
2017-08-15T13:34:30.963Z,73.60
2017-08-15T13:36:59.033Z,74.10
2017-08-15T13:39:27.093Z,74.30
2017-08-15T13:41:55.156Z,74.00
2017-08-15T13:44:23.252Z,74.20
2017-08-15T13:46:51.319Z,74.10
2017-08-15T13:49:19.406Z,74.40
2017-08-15T13:51:47.494Z,74.60
2017-08-15T13:54:16.379Z,74.90
2017-08-15T13:56:44.633Z,74.80
2017-08-15T13:59:13.477Z,74.90
2017-08-15T14:01:41.570Z,74.80
2017-08-15T14:04:10.404Z,74.70
2017-08-15T14:06:38.498Z,74.70
2017-08-15T14:09:07.365Z,75.20
2017-08-15T14:11:36.219Z,75.30
2017-08-15T14:14:04.322Z,75.20
2017-08-15T14:16:32.611Z,75.20
2017-08-15T14:19:00.677Z,75.30
2017-08-15T14:21:28.778Z,75.30
2017-08-15T14:23:56.830Z,75.50
2017-08-15T14:26:25.076Z,75.30
2017-08-15T14:28:54.167Z,75.90
2017-08-15T14:31:22.412Z,75.80
2017-08-15T14:33:51.429Z,75.60
2017-08-15T14:36:19.739Z,75.50
2017-08-15T14:38:48.027Z,76.10
2017-08-15T14:41:16.093Z,75.90
2017-08-15T14:43:44.169Z,76.10
2017-08-15T14:46:12.258Z,75.90
2017-08-15T14:48:40.316Z,76.00
2017-08-15T14:51:08.451Z,76.10
2017-08-15T14:53:37.286Z,76.20
2017-08-15T14:56:05.348Z,76.10
2017-08-15T14:58:33.432Z,76.20
2017-08-15T15:01:01.497Z,76.20
2017-08-15T15:03:29.574Z,76.00
2017-08-15T15:05:58.424Z,76.20
2017-08-15T15:08:26.518Z,76.20
2017-08-15T15:10:55.376Z,76.10
2017-08-15T15:13:24.224Z,76.90
2017-08-15T15:15:52.284Z,76.90
2017-08-15T15:18:20.388Z,76.20
2017-08-15T15:20:48.466Z,76.40
2017-08-15T15:23:16.569Z,76.30
2017-08-15T15:25:44.629Z,76.50
2017-08-15T15:28:13.474Z,77.10
2017-08-15T15:30:41.533Z,76.40
2017-08-15T15:33:09.827Z,76.70
2017-08-15T15:35:38.717Z,76.40
2017-08-15T15:38:06.776Z,76.30
2017-08-15T15:40:34.833Z,76.60
2017-08-15T15:43:03.023Z,76.50
2017-08-15T15:45:31.136Z,76.50
2017-08-15T15:47:59.864Z,76.60
2017-08-15T15:50:27.945Z,76.70
2017-08-15T15:52:56.990Z,76.90
2017-08-15T15:55:25.341Z,76.80
2017-08-15T15:57:53.636Z,76.70
2017-08-15T16:00:22.518Z,77.40
2017-08-15T16:02:51.615Z,77.50
2017-08-15T16:05:19.930Z,76.80
2017-08-15T16:07:48.257Z,77.00
2017-08-15T16:10:16.600Z,76.90
2017-08-15T16:12:45.919Z,77.00
2017-08-15T16:15:14.217Z,77.00
2017-08-15T16:17:42.498Z,76.90
2017-08-15T16:20:11.562Z,77.10
2017-08-15T16:22:39.844Z,77.00
2017-08-15T16:25:08.122Z,77.20
2017-08-15T16:27:36.400Z,77.00
2017-08-15T16:30:04.688Z,77.10
2017-08-15T16:32:32.819Z,77.30
2017-08-15T16:35:01.082Z,77.10
2017-08-15T16:37:29.331Z,77.00
2017-08-15T16:39:57.417Z,76.90
2017-08-15T16:42:25.516Z,77.20
2017-08-15T16:44:53.580Z,77.30
2017-08-15T16:47:21.673Z,77.40
2017-08-15T16:49:49.813Z,77.20
2017-08-15T16:52:17.912Z,77.40
2017-08-15T16:54:46.766Z,77.60
2017-08-15T16:57:14.866Z,77.50
2017-08-15T16:59:42.954Z,77.50
2017-08-15T17:02:11.051Z,77.40
2017-08-15T17:04:39.908Z,77.60
2017-08-15T17:07:08.181Z,78.20
2017-08-15T17:09:36.236Z,77.50
2017-08-15T17:12:04.338Z,77.40
2017-08-15T17:14:32.585Z,77.50
2017-08-15T17:17:00.646Z,77.60
2017-08-15T17:19:28.913Z,77.50
2017-08-15T17:21:57.188Z,77.40
2017-08-15T17:24:25.287Z,77.40
2017-08-15T17:26:54.325Z,77.60
2017-08-15T17:29:22.619Z,77.60
2017-08-15T17:31:50.906Z,77.70
2017-08-15T17:34:19.160Z,77.70
2017-08-15T17:36:47.450Z,77.40
2017-08-15T17:39:15.750Z,77.50
2017-08-15T17:41:43.827Z,77.40
2017-08-15T17:44:12.837Z,77.70
2017-08-15T17:46:41.093Z,77.60
2017-08-15T17:49:09.398Z,77.50
2017-08-15T17:51:37.653Z,77.60
2017-08-15T17:54:05.901Z,77.50
2017-08-15T17:56:34.169Z,77.60
2017-08-15T17:59:02.446Z,77.70
2017-08-15T18:01:30.697Z,77.70
2017-08-15T18:03:58.965Z,77.80
2017-08-15T18:06:27.216Z,77.80
2017-08-15T18:08:55.463Z,77.70
2017-08-15T18:11:23.724Z,77.60
2017-08-15T18:13:51.983Z,77.70
2017-08-15T18:16:20.270Z,77.80
2017-08-15T18:18:49.338Z,77.70
2017-08-15T18:21:17.589Z,77.60
2017-08-15T18:23:45.866Z,77.80
2017-08-15T18:26:14.154Z,77.90
2017-08-15T18:28:42.443Z,77.70
2017-08-15T18:31:10.752Z,77.80
2017-08-15T18:33:39.803Z,78.00
2017-08-15T18:36:08.052Z,78.00
2017-08-15T18:38:36.335Z,78.40
2017-08-15T18:41:04.649Z,78.70
2017-08-15T18:43:33.204Z,78.30
2017-08-15T18:46:01.457Z,78.10
2017-08-15T18:48:29.746Z,77.90
2017-08-15T18:50:58.107Z,77.60
2017-08-15T18:53:26.403Z,77.40
2017-08-15T18:55:55.473Z,76.90
2017-08-15T18:58:23.724Z,77.10
2017-08-15T19:00:51.977Z,77.20
2017-08-15T19:03:20.266Z,77.00
2017-08-15T19:05:49.323Z,77.00
2017-08-15T19:08:17.573Z,77.00
2017-08-15T19:10:45.854Z,77.10
2017-08-15T19:13:14.097Z,76.90
2017-08-15T19:15:42.342Z,76.80
2017-08-15T19:18:10.638Z,75.80
2017-08-15T19:20:39.685Z,76.50
2017-08-15T19:23:07.938Z,75.90
2017-08-15T19:25:36.234Z,76.50
2017-08-15T19:28:04.509Z,76.50
2017-08-15T19:30:33.567Z,76.70
2017-08-15T19:33:01.685Z,76.60
2017-08-15T19:35:29.979Z,76.40
2017-08-15T19:37:58.225Z,76.30
2017-08-15T19:40:26.535Z,75.90
2017-08-15T19:42:54.819Z,75.80
2017-08-15T19:45:23.111Z,76.00
2017-08-15T19:47:51.452Z,75.90
2017-08-15T19:50:19.734Z,75.80
2017-08-15T19:52:48.014Z,75.40
2017-08-15T19:55:17.082Z,73.60
2017-08-15T19:57:45.336Z,73.60
2017-08-15T20:00:14.297Z,73.40
2017-08-15T20:02:42.602Z,73.40
2017-08-15T20:05:10.886Z,73.50
2017-08-15T20:07:39.910Z,73.90
2017-08-15T20:10:08.178Z,73.80
2017-08-15T20:12:36.421Z,74.20
2017-08-15T20:15:04.676Z,74.40
2017-08-15T20:17:32.964Z,74.60
2017-08-15T20:20:01.090Z,74.80
2017-08-15T20:22:29.154Z,74.80
2017-08-15T20:24:57.466Z,75.10
2017-08-15T20:27:25.746Z,75.30
2017-08-15T20:29:54.790Z,75.50
2017-08-15T20:32:23.061Z,75.50
2017-08-15T20:34:51.317Z,75.60
2017-08-15T20:37:19.599Z,75.70
2017-08-15T20:39:48.638Z,76.00
2017-08-15T20:42:16.918Z,75.90
2017-08-15T20:44:45.202Z,76.10
2017-08-15T20:47:14.270Z,76.30
2017-08-15T20:49:43.324Z,76.60
2017-08-15T20:52:11.615Z,76.50
2017-08-15T20:54:40.649Z,76.70
2017-08-15T20:57:08.901Z,76.70
2017-08-15T20:59:37.144Z,76.70
2017-08-15T21:02:05.408Z,76.90
2017-08-15T21:04:33.694Z,77.10
2017-08-15T21:07:01.942Z,77.30
2017-08-15T21:09:30.213Z,77.50
2017-08-15T21:11:58.502Z,77.60
2017-08-15T21:14:26.757Z,77.50
2017-08-15T21:16:55.058Z,77.50
2017-08-15T21:19:23.304Z,77.70
2017-08-15T21:21:51.558Z,77.80
2017-08-15T21:24:20.580Z,77.80
2017-08-15T21:26:48.823Z,77.80
2017-08-15T21:29:17.100Z,77.80
2017-08-15T21:31:45.406Z,77.80
2017-08-15T21:34:14.454Z,77.90
2017-08-15T21:36:42.701Z,77.90
2017-08-15T21:39:10.967Z,78.20
2017-08-15T21:41:39.256Z,78.00
2017-08-15T21:44:08.311Z,78.40
2017-08-15T21:46:36.578Z,78.20
2017-08-15T21:49:04.844Z,78.30
2017-08-15T21:51:33.127Z,78.30
2017-08-15T21:54:01.981Z,78.30
2017-08-15T21:56:30.267Z,78.30
2017-08-15T21:58:59.318Z,78.20
2017-08-15T22:01:33.107Z,78.20
2017-08-15T22:04:01.354Z,78.20
2017-08-15T22:06:29.602Z,78.20
2017-08-15T22:08:57.960Z,78.20
2017-08-15T22:11:26.292Z,78.20
2017-08-15T22:13:54.555Z,78.20
2017-08-15T22:16:23.534Z,78.30
2017-08-15T22:18:51.781Z,78.40
2017-08-15T22:21:20.033Z,78.30
2017-08-15T22:23:49.089Z,78.30
2017-08-15T22:26:17.379Z,78.20
2017-08-15T22:28:45.625Z,70.80
2017-08-15T22:31:14.661Z,71.70
2017-08-15T22:33:42.915Z,71.70
2017-08-15T22:36:11.153Z,73.00
2017-08-15T22:38:39.431Z,73.70
2017-08-15T22:41:07.705Z,74.10
2017-08-15T22:43:35.995Z,74.70
2017-08-15T22:46:05.024Z,75.30
2017-08-15T22:48:33.279Z,75.20
2017-08-15T22:51:01.597Z,75.50
2017-08-15T22:53:30.624Z,75.80
2017-08-15T22:55:58.873Z,75.80
2017-08-15T22:58:27.163Z,75.90
2017-08-15T23:00:55.470Z,76.00
2017-08-15T23:03:23.720Z,76.10
2017-08-15T23:05:51.814Z,76.10
2017-08-15T23:08:20.110Z,70.40
2017-08-15T23:10:48.542Z,62.40
2017-08-15T23:13:16.793Z,60.70
2017-08-15T23:15:45.092Z,61.40
2017-08-15T23:18:13.398Z,62.30
2017-08-15T23:20:41.650Z,63.00
2017-08-15T23:23:09.955Z,63.00
2017-08-15T23:25:38.238Z,63.40
2017-08-15T23:28:06.517Z,63.50
2017-08-15T23:30:35.582Z,64.40
2017-08-15T23:33:04.597Z,65.00
2017-08-15T23:35:32.875Z,64.30
2017-08-15T23:38:01.174Z,65.10
2017-08-15T23:40:29.481Z,64.60
2017-08-15T23:42:57.759Z,65.10
2017-08-15T23:45:26.021Z,65.10
2017-08-15T23:47:54.307Z,65.20
2017-08-15T23:50:22.641Z,65.10
2017-08-15T23:52:50.937Z,65.40
2017-08-15T23:55:19.227Z,65.50
2017-08-15T23:57:47.484Z,65.90
